createdAt,value
2018-12-13T00:00:12.104Z,-1.20
2018-12-13T00:02:39.614Z,-1.20
2018-12-13T00:05:07.177Z,-1.20
2018-12-13T00:07:34.695Z,-1.10
2018-12-13T00:10:02.294Z,-1.10
2018-12-13T00:12:29.810Z,-1.10
2018-12-13T00:14:57.293Z,-1.00
2018-12-13T00:17:24.801Z,-1.00
2018-12-13T00:19:52.299Z,-1.00
2018-12-13T00:22:19.819Z,-1.00
2018-12-13T00:24:47.322Z,-1.00
2018-12-13T00:27:14.833Z,-1.00
2018-12-13T00:29:42.342Z,-1.00
2018-12-13T00:32:09.849Z,-1.00
2018-12-13T00:34:37.358Z,-1.00
2018-12-13T00:37:04.856Z,-1.10
2018-12-13T00:39:32.386Z,-1.10
2018-12-13T00:41:59.869Z,-1.00
2018-12-13T00:44:27.399Z,-1.10
2018-12-13T00:46:55.268Z,-1.10
2018-12-13T00:49:22.781Z,-1.20
2018-12-13T00:51:50.306Z,-1.20
2018-12-13T00:54:17.795Z,-1.20
2018-12-13T00:56:45.301Z,-1.20
2018-12-13T00:59:12.784Z,-1.20
2018-12-13T01:01:40.334Z,-1.10
2018-12-13T01:04:07.909Z,-1.10
2018-12-13T01:06:35.412Z,-1.20
2018-12-13T01:09:03.483Z,-1.20
2018-12-13T01:11:30.974Z,-1.30
2018-12-13T01:13:58.493Z,-1.30
2018-12-13T01:16:25.978Z,-1.30
2018-12-13T01:18:53.494Z,-1.30
2018-12-13T01:21:21.174Z,-1.30
2018-12-13T01:23:48.922Z,-1.30
2018-12-13T01:26:16.413Z,-1.30
2018-12-13T01:28:43.924Z,-1.30
2018-12-13T01:31:11.419Z,-1.40
2018-12-13T01:33:38.909Z,-1.40
2018-12-13T01:36:06.438Z,-1.40
2018-12-13T01:38:33.934Z,-1.40
2018-12-13T01:41:01.466Z,-1.50
2018-12-13T01:43:29.051Z,-1.50
2018-12-13T01:45:56.567Z,-1.60
2018-12-13T01:48:24.070Z,-1.60
2018-12-13T01:50:51.582Z,-1.60
2018-12-13T01:53:19.070Z,-1.60
2018-12-13T01:55:46.666Z,-1.70
2018-12-13T01:58:14.158Z,-1.70
2018-12-13T02:00:41.655Z,-1.70
2018-12-13T02:03:09.165Z,-1.70
2018-12-13T02:05:36.657Z,-1.70
2018-12-13T02:08:04.185Z,-1.80
2018-12-13T02:10:31.673Z,-1.80
2018-12-13T02:12:59.202Z,-1.80
2018-12-13T02:15:26.691Z,-1.90
2018-12-13T02:17:54.201Z,-1.80
2018-12-13T02:20:21.691Z,-1.80
2018-12-13T02:22:49.182Z,-1.90
2018-12-13T02:25:16.730Z,-1.90
2018-12-13T02:27:44.218Z,-1.80
2018-12-13T02:30:11.821Z,-1.80
2018-12-13T02:32:39.318Z,-1.80
2018-12-13T02:35:06.907Z,-1.80
2018-12-13T02:37:34.402Z,-1.80
2018-12-13T02:40:01.997Z,-1.80
2018-12-13T02:42:29.497Z,-1.80
2018-12-13T02:44:57.010Z,-1.80
2018-12-13T02:47:24.509Z,-1.90
2018-12-13T02:49:52.014Z,-1.90
2018-12-13T02:52:19.530Z,-1.80
2018-12-13T02:54:47.033Z,-1.80
2018-12-13T02:57:14.549Z,-1.80
2018-12-13T02:59:42.146Z,-1.80
2018-12-13T03:02:09.661Z,-1.70
2018-12-13T03:04:37.244Z,-1.70
2018-12-13T03:07:04.757Z,-1.70
2018-12-13T03:09:32.263Z,-1.60
2018-12-13T03:11:59.772Z,-1.70
2018-12-13T03:14:27.308Z,-1.70
2018-12-13T03:16:54.800Z,-1.70
2018-12-13T03:19:22.336Z,-1.60
2018-12-13T03:21:49.842Z,-1.70
2018-12-13T03:24:17.350Z,-1.70
2018-12-13T03:26:44.843Z,-1.70
2018-12-13T03:29:12.352Z,-1.70
2018-12-13T03:31:39.940Z,-1.70
2018-12-13T03:34:07.456Z,-1.70
2018-12-13T03:36:34.949Z,-1.80
2018-12-13T03:39:02.626Z,-1.80
2018-12-13T03:41:30.135Z,-1.80
2018-12-13T03:43:57.647Z,-1.90
2018-12-13T03:46:25.166Z,-1.90
2018-12-13T03:48:52.693Z,-1.90
2018-12-13T03:51:20.198Z,-1.80
2018-12-13T03:53:47.687Z,-1.80
2018-12-13T03:56:15.190Z,-1.80
2018-12-13T03:58:42.680Z,-1.70
2018-12-13T04:01:10.214Z,-1.60
2018-12-13T04:03:37.697Z,-1.60
2018-12-13T04:06:05.186Z,-1.60
2018-12-13T04:08:32.700Z,-1.60
2018-12-13T04:11:00.195Z,-1.60
2018-12-13T04:13:27.714Z,-1.60
2018-12-13T04:15:55.198Z,-1.50
2018-12-13T04:18:22.731Z,-1.50
2018-12-13T04:20:50.218Z,-1.50
2018-12-13T04:23:17.712Z,-1.50
2018-12-13T04:25:45.215Z,-1.50
2018-12-13T04:28:12.707Z,-1.50
2018-12-13T04:30:40.214Z,-1.40
2018-12-13T04:33:07.707Z,-1.50
2018-12-13T04:35:35.215Z,-1.50
2018-12-13T04:38:02.717Z,-1.50
2018-12-13T04:40:30.242Z,-1.50
2018-12-13T04:42:57.731Z,-1.50
2018-12-13T04:45:25.243Z,-1.50
2018-12-13T04:47:52.746Z,-1.50
2018-12-13T04:50:20.229Z,-1.40
2018-12-13T04:52:47.753Z,-1.40
2018-12-13T04:55:15.247Z,-1.50
2018-12-13T04:57:42.779Z,-1.50
2018-12-13T05:00:10.273Z,-1.40
2018-12-13T05:02:37.774Z,-1.50
2018-12-13T05:05:05.348Z,-1.40
2018-12-13T05:07:32.867Z,-1.40
2018-12-13T05:10:00.371Z,-1.50
2018-12-13T05:12:27.861Z,-1.60
2018-12-13T05:14:55.384Z,-1.60
2018-12-13T05:17:23.532Z,-1.60
2018-12-13T05:19:51.314Z,-1.60
2018-12-13T05:22:18.813Z,-1.60
2018-12-13T05:24:46.331Z,-1.60
2018-12-13T05:27:13.849Z,-1.60
2018-12-13T05:29:41.358Z,-1.60
2018-12-13T05:32:08.962Z,-1.50
2018-12-13T05:34:36.543Z,-1.60
2018-12-13T05:37:04.035Z,-1.60
2018-12-13T05:39:31.569Z,-1.60
2018-12-13T05:41:59.069Z,-1.60
2018-12-13T05:44:26.700Z,-1.70
2018-12-13T05:46:54.205Z,-1.70
2018-12-13T05:49:21.690Z,-1.60
2018-12-13T05:51:49.193Z,-1.70
2018-12-13T05:54:16.682Z,-1.70
2018-12-13T05:56:44.215Z,-1.80
2018-12-13T05:59:11.709Z,-1.80
2018-12-13T06:01:39.197Z,-1.80
2018-12-13T06:04:06.733Z,-1.80
2018-12-13T06:06:34.227Z,-1.80
2018-12-13T06:09:01.744Z,-1.70
2018-12-13T06:11:29.231Z,-1.80
2018-12-13T06:13:56.757Z,-1.80
2018-12-13T06:16:24.251Z,-1.80
2018-12-13T06:18:51.753Z,-1.70
2018-12-13T06:21:19.264Z,-1.60
2018-12-13T06:23:46.782Z,-1.70
2018-12-13T06:26:14.274Z,-1.70
2018-12-13T06:28:41.770Z,-1.80
2018-12-13T06:31:09.321Z,-1.70
2018-12-13T06:33:36.808Z,-1.70
2018-12-13T06:36:04.314Z,-1.70
2018-12-13T06:38:31.829Z,-1.70
2018-12-13T06:40:59.345Z,-1.70
2018-12-13T06:43:26.861Z,-1.80
2018-12-13T06:45:54.377Z,-1.90
2018-12-13T06:48:21.894Z,-1.90
2018-12-13T06:50:49.381Z,-1.90
2018-12-13T06:53:16.888Z,-1.90
2018-12-13T06:55:44.376Z,-2.00
2018-12-13T06:58:11.878Z,-2.00
2018-12-13T07:00:39.374Z,-2.10
2018-12-13T07:03:06.878Z,-2.10
2018-12-13T07:05:34.365Z,-2.00
2018-12-13T07:08:07.605Z,-2.00
2018-12-13T07:10:31.428Z,-2.10
2018-12-13T07:12:58.943Z,-2.00
2018-12-13T07:15:26.438Z,-2.00
2018-12-13T07:17:53.931Z,-2.00
2018-12-13T07:20:21.448Z,-2.00
2018-12-13T07:22:48.955Z,-2.10
2018-12-13T07:25:16.461Z,-2.10
2018-12-13T07:27:43.966Z,-2.10
2018-12-13T07:30:11.563Z,-2.10
2018-12-13T07:32:39.071Z,-1.90
2018-12-13T07:35:07.045Z,-1.20
2018-12-13T07:37:34.541Z,-0.40
2018-12-13T07:40:02.029Z,0.40
2018-12-13T07:42:29.546Z,1.40
2018-12-13T07:44:57.031Z,2.10
2018-12-13T07:47:24.527Z,2.90
2018-12-13T07:49:52.012Z,3.60
2018-12-13T07:52:19.513Z,3.90
2018-12-13T07:54:47.021Z,3.80
2018-12-13T07:57:14.534Z,4.20
2018-12-13T07:59:42.035Z,4.60
2018-12-13T08:02:12.788Z,4.60
2018-12-13T08:04:40.301Z,5.10
2018-12-13T08:07:07.785Z,5.50
2018-12-13T08:09:35.286Z,6.00
2018-12-13T08:12:02.764Z,6.10
2018-12-13T08:14:30.268Z,6.10
2018-12-13T08:16:57.765Z,5.30
2018-12-13T08:19:25.276Z,5.60
2018-12-13T08:21:52.838Z,6.00
2018-12-13T08:24:20.341Z,6.40
2018-12-13T08:26:47.829Z,6.40
2018-12-13T08:29:15.335Z,6.90
2018-12-13T08:31:42.853Z,6.70
2018-12-13T08:34:10.337Z,6.80
2018-12-13T08:36:37.837Z,7.10
2018-12-13T08:39:07.317Z,7.50
2018-12-13T08:41:34.852Z,7.30
2018-12-13T08:44:04.330Z,7.00
2018-12-13T08:46:36.454Z,6.80
2018-12-13T08:49:01.358Z,7.10
2018-12-13T08:51:28.841Z,6.20
2018-12-13T08:53:56.346Z,7.00
2018-12-13T08:56:23.866Z,7.10
2018-12-13T08:58:51.365Z,7.00
2018-12-13T09:01:18.851Z,6.70
2018-12-13T09:03:46.363Z,6.30
2018-12-13T09:06:13.841Z,6.90
2018-12-13T09:08:41.359Z,6.90
2018-12-13T09:11:08.842Z,7.00
2018-12-13T09:13:36.369Z,7.50
2018-12-13T09:16:03.861Z,6.40
2018-12-13T09:18:31.356Z,5.50
2018-12-13T09:20:58.855Z,5.80
2018-12-13T09:23:26.343Z,5.70
2018-12-13T09:25:53.860Z,5.80
2018-12-13T09:28:21.346Z,5.50
2018-12-13T09:30:48.938Z,6.30
2018-12-13T09:33:16.428Z,6.50
2018-12-13T09:35:43.956Z,6.80
2018-12-13T09:38:11.445Z,6.50
2018-12-13T09:40:38.932Z,5.90
2018-12-13T09:43:06.445Z,5.10
2018-12-13T09:45:33.922Z,4.00
2018-12-13T09:48:01.444Z,3.20
2018-12-13T09:50:29.167Z,2.90
2018-12-13T09:52:56.789Z,2.60
2018-12-13T09:55:24.273Z,2.80
2018-12-13T09:57:51.782Z,2.70
2018-12-13T10:00:19.309Z,2.60
2018-12-13T10:02:46.817Z,2.70
2018-12-13T10:05:14.330Z,2.90
2018-12-13T10:07:41.834Z,3.10
2018-12-13T10:10:09.403Z,3.10
2018-12-13T10:12:36.885Z,3.00
2018-12-13T10:15:05.085Z,3.10
2018-12-13T10:17:32.572Z,3.10
2018-12-13T10:20:00.150Z,2.90
2018-12-13T10:22:28.697Z,2.60
2018-12-13T10:24:56.357Z,2.40
2018-12-13T10:27:23.839Z,2.40
2018-12-13T10:29:51.422Z,2.30
2018-12-13T10:32:18.910Z,2.70
2018-12-13T10:34:46.390Z,2.90
2018-12-13T10:37:13.890Z,2.90
2018-12-13T10:39:41.464Z,2.50
2018-12-13T10:42:08.971Z,2.60
2018-12-13T10:44:36.446Z,3.00
2018-12-13T10:47:04.137Z,3.10
2018-12-13T10:49:31.641Z,2.80
2018-12-13T10:51:59.154Z,2.90
2018-12-13T10:54:26.637Z,3.00
2018-12-13T10:56:54.197Z,3.20
2018-12-13T10:59:21.794Z,3.40
2018-12-13T11:01:54.921Z,3.20
2018-12-13T11:04:22.443Z,3.10
2018-12-13T11:06:49.921Z,3.30
2018-12-13T11:09:17.429Z,3.40
2018-12-13T11:11:44.918Z,3.60
2018-12-13T11:14:12.426Z,3.30
2018-12-13T11:16:39.930Z,3.20
2018-12-13T11:19:07.413Z,3.10
2018-12-13T11:21:34.918Z,3.30
2018-12-13T11:24:02.396Z,3.70
2018-12-13T11:26:29.894Z,4.00
2018-12-13T11:29:09.473Z,3.90
2018-12-13T11:31:37.038Z,4.00
2018-12-13T11:34:04.523Z,3.70
2018-12-13T11:36:32.035Z,3.80
2018-12-13T11:39:05.574Z,3.90
2018-12-13T11:41:29.058Z,3.60
2018-12-13T11:43:56.549Z,3.30
2018-12-13T11:46:24.037Z,3.40
2018-12-13T11:48:51.534Z,3.00
2018-12-13T11:51:19.013Z,3.10
2018-12-13T11:53:46.718Z,3.00
2018-12-13T11:56:14.201Z,3.10
2018-12-13T11:58:41.699Z,2.90
2018-12-13T12:01:09.187Z,2.80
2018-12-13T12:03:36.697Z,3.10
2018-12-13T12:06:04.191Z,2.90
2018-12-13T12:08:31.767Z,2.80
2018-12-13T12:10:59.274Z,2.90
2018-12-13T12:13:26.754Z,3.00
2018-12-13T12:15:54.254Z,3.20
2018-12-13T12:18:21.738Z,3.20
2018-12-13T12:20:49.234Z,3.30
2018-12-13T12:23:16.734Z,3.30
2018-12-13T12:25:44.235Z,3.40
2018-12-13T12:28:11.723Z,3.50
2018-12-13T12:30:39.221Z,3.50
2018-12-13T12:33:06.700Z,3.70
2018-12-13T12:35:34.217Z,3.50
2018-12-13T12:38:01.706Z,3.30
2018-12-13T12:40:29.205Z,3.00
2018-12-13T12:42:56.693Z,2.80
2018-12-13T12:45:24.222Z,2.90
2018-12-13T12:47:51.711Z,3.00
2018-12-13T12:50:19.231Z,2.70
2018-12-13T12:52:46.729Z,2.60
2018-12-13T12:55:14.224Z,2.50
2018-12-13T12:57:41.739Z,2.70
2018-12-13T13:00:09.414Z,3.00
2018-12-13T13:02:37.244Z,3.20
2018-12-13T13:05:05.337Z,3.10
2018-12-13T13:07:32.818Z,3.20
2018-12-13T13:10:00.437Z,2.90
2018-12-13T13:12:27.943Z,2.60
2018-12-13T13:14:55.442Z,2.70
2018-12-13T13:17:22.936Z,2.70
2018-12-13T13:19:50.463Z,2.70
2018-12-13T13:22:17.963Z,2.70
2018-12-13T13:24:45.450Z,2.70
2018-12-13T13:27:12.978Z,2.40
2018-12-13T13:29:40.460Z,2.30
2018-12-13T13:32:07.961Z,2.30
2018-12-13T13:34:35.442Z,2.30
2018-12-13T13:37:03.032Z,2.10
2018-12-13T13:39:31.645Z,2.10
2018-12-13T13:41:59.553Z,2.00
2018-12-13T13:44:29.018Z,1.60
2018-12-13T13:46:56.502Z,1.50
2018-12-13T13:49:24.007Z,1.60
2018-12-13T13:51:51.498Z,1.50
2018-12-13T13:54:19.006Z,1.60
2018-12-13T13:56:46.488Z,1.60
2018-12-13T13:59:14.001Z,1.70
2018-12-13T14:01:41.481Z,1.80
2018-12-13T14:04:08.993Z,1.70
2018-12-13T14:06:36.478Z,1.70
2018-12-13T14:09:06.141Z,1.50
2018-12-13T14:11:33.627Z,1.40
2018-12-13T14:14:01.115Z,1.20
2018-12-13T14:16:28.626Z,1.10
2018-12-13T14:18:56.129Z,1.00
2018-12-13T14:21:23.625Z,0.80
2018-12-13T14:23:51.112Z,0.70
2018-12-13T14:26:18.613Z,0.60
2018-12-13T14:28:46.103Z,0.70
2018-12-13T14:31:13.622Z,0.70
2018-12-13T14:33:41.105Z,0.50
2018-12-13T14:36:08.614Z,0.50
2018-12-13T14:38:36.113Z,0.20
2018-12-13T14:41:03.604Z,0.20
2018-12-13T14:43:31.102Z,0.00
2018-12-13T14:45:58.589Z,0.00
2018-12-13T14:48:26.111Z,0.00
2018-12-13T14:50:53.626Z,0.00
2018-12-13T14:53:21.153Z,-0.10
2018-12-13T14:55:48.763Z,-0.20
2018-12-13T14:58:16.258Z,-0.30
2018-12-13T15:00:43.769Z,-0.30
2018-12-13T15:03:11.282Z,-0.40
2018-12-13T15:05:38.789Z,-0.60
2018-12-13T15:08:06.282Z,-0.60
2018-12-13T15:10:33.785Z,-0.60
2018-12-13T15:13:01.285Z,-0.60
2018-12-13T15:15:28.796Z,-0.70
2018-12-13T15:17:56.293Z,-0.70
2018-12-13T15:20:23.818Z,-0.70
2018-12-13T15:22:51.316Z,-0.70
2018-12-13T15:25:18.814Z,-0.70
2018-12-13T15:27:46.331Z,-0.80
2018-12-13T15:30:13.821Z,-0.90
2018-12-13T15:32:41.338Z,-0.90
2018-12-13T15:35:08.829Z,-1.00
2018-12-13T15:37:36.332Z,-1.00
2018-12-13T15:40:03.986Z,-1.00
2018-12-13T15:42:31.494Z,-0.90
2018-12-13T15:44:58.982Z,-0.90
2018-12-13T15:47:26.501Z,-0.90
2018-12-13T15:49:54.198Z,-0.90
2018-12-13T15:52:21.715Z,-0.90
2018-12-13T15:54:49.211Z,-0.80
2018-12-13T15:57:16.699Z,-0.80
2018-12-13T15:59:44.205Z,-0.80
2018-12-13T16:02:11.706Z,-0.80
2018-12-13T16:04:39.211Z,-1.00
2018-12-13T16:07:06.731Z,-1.00
2018-12-13T16:09:34.352Z,-0.90
2018-12-13T16:12:01.869Z,-0.90
2018-12-13T16:14:29.370Z,-0.90
2018-12-13T16:16:57.575Z,-1.00
2018-12-13T16:19:25.232Z,-1.00
2018-12-13T16:21:52.853Z,-1.00
2018-12-13T16:24:20.361Z,-0.90
2018-12-13T16:26:47.872Z,-1.00
2018-12-13T16:29:15.357Z,-1.10
2018-12-13T16:31:42.868Z,-1.10
2018-12-13T16:34:10.376Z,-1.10
2018-12-13T16:36:37.893Z,-1.10
2018-12-13T16:39:07.746Z,-1.00
2018-12-13T16:41:35.236Z,-0.90
2018-12-13T16:44:02.742Z,-0.90
2018-12-13T16:46:30.234Z,-1.00
2018-12-13T16:48:57.747Z,-1.10
2018-12-13T16:51:25.248Z,-1.10
2018-12-13T16:53:52.758Z,-1.10
2018-12-13T16:56:20.254Z,-1.10
2018-12-13T16:58:47.770Z,-1.10
2018-12-13T17:01:15.270Z,-1.10
2018-12-13T17:03:42.850Z,-1.10
2018-12-13T17:06:10.453Z,-1.00
2018-12-13T17:08:37.948Z,-1.00
2018-12-13T17:11:05.461Z,-1.00
2018-12-13T17:13:32.975Z,-1.10
2018-12-13T17:16:00.578Z,-1.20
2018-12-13T17:18:28.068Z,-1.10
2018-12-13T17:20:55.659Z,-1.10
2018-12-13T17:23:23.166Z,-1.10
2018-12-13T17:25:50.732Z,-1.10
2018-12-13T17:28:18.246Z,-1.10
2018-12-13T17:30:45.739Z,-1.20
2018-12-13T17:33:13.285Z,-1.30
2018-12-13T17:35:40.886Z,-1.30
2018-12-13T17:38:08.419Z,-1.30
2018-12-13T17:40:35.939Z,-1.30
2018-12-13T17:43:03.457Z,-1.30
2018-12-13T17:45:32.729Z,-1.30
2018-12-13T17:48:00.221Z,-1.30
2018-12-13T17:50:27.833Z,-1.40
2018-12-13T17:52:55.333Z,-1.30
2018-12-13T17:55:22.837Z,-1.30
2018-12-13T17:57:50.354Z,-1.40
2018-12-13T18:00:17.867Z,-1.50
2018-12-13T18:02:45.361Z,-1.50
2018-12-13T18:05:12.947Z,-1.50
2018-12-13T18:07:40.442Z,-1.60
2018-12-13T18:10:09.641Z,-1.50
2018-12-13T18:12:37.221Z,-1.50
2018-12-13T18:15:05.579Z,-1.60
2018-12-13T18:17:33.113Z,-1.70
2018-12-13T18:20:01.254Z,-1.70
2018-12-13T18:22:28.810Z,-1.70
2018-12-13T18:24:56.302Z,-1.60
2018-12-13T18:27:23.810Z,-1.60
2018-12-13T18:29:51.306Z,-1.70
2018-12-13T18:32:19.365Z,-1.70
2018-12-13T18:34:46.923Z,-1.70
2018-12-13T18:37:14.417Z,-1.80
2018-12-13T18:39:41.929Z,-1.80
2018-12-13T18:42:10.467Z,-1.70
2018-12-13T18:44:37.982Z,-1.80
2018-12-13T18:47:05.476Z,-1.80
2018-12-13T18:49:33.093Z,-1.80
2018-12-13T18:52:00.581Z,-1.90
2018-12-13T18:54:28.081Z,-2.00
2018-12-13T18:56:55.587Z,-2.00
2018-12-13T18:59:23.187Z,-2.10
2018-12-13T19:01:50.705Z,-2.10
2018-12-13T19:04:18.212Z,-2.10
2018-12-13T19:06:45.721Z,-2.10
2018-12-13T19:09:13.221Z,-2.10
2018-12-13T19:11:40.729Z,-2.00
2018-12-13T19:14:08.238Z,-2.00
2018-12-13T19:16:35.746Z,-2.10
2018-12-13T19:19:03.324Z,-2.20
2018-12-13T19:21:31.550Z,-2.30
2018-12-13T19:23:59.108Z,-2.40
2018-12-13T19:26:26.606Z,-2.40
2018-12-13T19:28:54.125Z,-2.50
2018-12-13T19:31:21.630Z,-2.50
2018-12-13T19:33:49.144Z,-2.50
2018-12-13T19:36:16.639Z,-2.60
2018-12-13T19:38:44.150Z,-2.70
2018-12-13T19:41:11.658Z,-2.70
2018-12-13T19:43:39.175Z,-2.70
2018-12-13T19:46:06.667Z,-2.70
2018-12-13T19:48:34.193Z,-2.80
2018-12-13T19:51:01.815Z,-2.80
2018-12-13T19:53:29.402Z,-2.70
2018-12-13T19:55:56.909Z,-2.80
2018-12-13T19:58:24.399Z,-2.90
2018-12-13T20:00:51.906Z,-2.90
2018-12-13T20:03:19.410Z,-2.90
2018-12-13T20:05:47.014Z,-2.90
2018-12-13T20:08:14.508Z,-2.90
2018-12-13T20:10:42.018Z,-2.90
2018-12-13T20:13:09.523Z,-2.80
2018-12-13T20:15:37.046Z,-2.90
2018-12-13T20:18:04.654Z,-3.00
2018-12-13T20:20:32.147Z,-3.10
2018-12-13T20:22:59.996Z,-3.20
2018-12-13T20:25:27.528Z,-3.20
2018-12-13T20:27:55.078Z,-3.30
2018-12-13T20:30:22.581Z,-3.30
2018-12-13T20:32:50.090Z,-3.30
2018-12-13T20:35:17.869Z,-3.30
2018-12-13T20:37:45.395Z,-3.20
2018-12-13T20:40:12.881Z,-3.20
2018-12-13T20:42:40.376Z,-3.10
2018-12-13T20:45:07.961Z,-3.10
2018-12-13T20:47:35.452Z,-3.10
2018-12-13T20:50:03.722Z,-3.10
2018-12-13T20:52:31.230Z,-3.20
2018-12-13T20:54:59.099Z,-3.20
2018-12-13T20:57:26.614Z,-3.30
2018-12-13T20:59:54.130Z,-3.20
2018-12-13T21:02:21.627Z,-3.20
2018-12-13T21:04:49.124Z,-3.30
2018-12-13T21:07:22.398Z,-3.30
2018-12-13T21:09:50.061Z,-3.30
2018-12-13T21:12:17.656Z,-3.20
2018-12-13T21:14:45.229Z,-3.30
2018-12-13T21:17:12.730Z,-3.30
2018-12-13T21:19:40.218Z,-3.40
2018-12-13T21:22:07.721Z,-3.50
2018-12-13T21:24:35.242Z,-3.70
2018-12-13T21:27:02.733Z,-3.80
2018-12-13T21:29:30.258Z,-3.90
2018-12-13T21:31:57.751Z,-3.90
2018-12-13T21:34:25.255Z,-4.00
2018-12-13T21:36:52.750Z,-3.90
2018-12-13T21:39:20.262Z,-3.90
2018-12-13T21:41:47.781Z,-3.90
2018-12-13T21:44:15.292Z,-3.90
2018-12-13T21:46:42.855Z,-3.90
2018-12-13T21:49:10.365Z,-4.00
2018-12-13T21:51:37.873Z,-4.00
2018-12-13T21:54:05.371Z,-4.10
2018-12-13T21:56:32.881Z,-4.10
2018-12-13T21:59:03.672Z,-4.20
2018-12-13T22:01:29.890Z,-4.10
2018-12-13T22:03:57.379Z,-4.20
2018-12-13T22:06:24.975Z,-4.20
2018-12-13T22:08:52.466Z,-4.10
2018-12-13T22:11:20.158Z,-4.00
2018-12-13T22:13:47.847Z,-4.00
2018-12-13T22:16:15.397Z,-4.00
2018-12-13T22:18:42.907Z,-4.00
2018-12-13T22:21:10.392Z,-3.90
2018-12-13T22:23:37.902Z,-4.00
2018-12-13T22:26:05.394Z,-4.00
2018-12-13T22:28:32.901Z,-4.00
2018-12-13T22:31:00.395Z,-3.90
2018-12-13T22:33:27.901Z,-3.90
2018-12-13T22:35:55.395Z,-3.90
2018-12-13T22:38:22.940Z,-4.00
2018-12-13T22:40:50.426Z,-4.00
2018-12-13T22:43:20.650Z,-4.10
2018-12-13T22:45:47.464Z,-4.00
2018-12-13T22:48:14.950Z,-4.00
2018-12-13T22:50:42.461Z,-4.10
2018-12-13T22:53:09.947Z,-4.10
2018-12-13T22:55:37.454Z,-4.10
2018-12-13T22:58:04.949Z,-4.10
2018-12-13T23:00:32.462Z,-4.10
2018-12-13T23:03:00.038Z,-4.20
2018-12-13T23:05:27.537Z,-4.20
2018-12-13T23:07:55.163Z,-4.20
2018-12-13T23:10:22.653Z,-4.20
2018-12-13T23:12:50.192Z,-4.20
2018-12-13T23:15:17.687Z,-4.20
2018-12-13T23:17:45.198Z,-4.20
2018-12-13T23:20:12.685Z,-4.30
2018-12-13T23:22:40.211Z,-4.30
2018-12-13T23:25:07.786Z,-4.30
2018-12-13T23:27:35.340Z,-4.50
2018-12-13T23:30:05.009Z,-4.50
2018-12-13T23:32:32.499Z,-4.60
2018-12-13T23:35:00.009Z,-4.70
2018-12-13T23:37:27.514Z,-4.80
2018-12-13T23:39:55.270Z,-4.80
2018-12-13T23:42:22.762Z,-4.70
2018-12-13T23:44:50.293Z,-4.60
2018-12-13T23:47:18.001Z,-4.60
2018-12-13T23:49:45.504Z,-4.70
2018-12-13T23:52:12.994Z,-4.80
2018-12-13T23:54:40.497Z,-4.70
2018-12-13T23:57:07.982Z,-4.70
2018-12-13T23:59:35.496Z,-4.80
